sensor_id;sensor_type;location;lat;lon;timestamp;temperature;humidity
67093;SHT31;54011;50.772;7.730;2022-12-07T00:01:41;3.79;96.51
67093;SHT31;54011;50.772;7.730;2022-12-07T00:04:10;3.78;96.77
67093;SHT31;54011;50.772;7.730;2022-12-07T00:06:41;3.76;96.65
67093;SHT31;54011;50.772;7.730;2022-12-07T00:09:11;3.78;96.48
67093;SHT31;54011;50.772;7.730;2022-12-07T00:11:37;3.76;96.69
67093;SHT31;54011;50.772;7.730;2022-12-07T00:14:07;3.82;96.66
67093;SHT31;54011;50.772;7.730;2022-12-07T00:16:34;3.78;96.78
67093;SHT31;54011;50.772;7.730;2022-12-07T00:19:00;3.81;96.70
67093;SHT31;54011;50.772;7.730;2022-12-07T00:21:30;3.85;96.43
67093;SHT31;54011;50.772;7.730;2022-12-07T00:24:13;3.76;96.90
67093;SHT31;54011;50.772;7.730;2022-12-07T00:26:41;3.78;97.00
67093;SHT31;54011;50.772;7.730;2022-12-07T00:29:17;3.83;96.64
67093;SHT31;54011;50.772;7.730;2022-12-07T00:31:46;3.89;96.47
67093;SHT31;54011;50.772;7.730;2022-12-07T00:34:14;3.86;96.68
67093;SHT31;54011;50.772;7.730;2022-12-07T00:36:40;3.86;96.45
67093;SHT31;54011;50.772;7.730;2022-12-07T00:39:05;3.79;96.80
67093;SHT31;54011;50.772;7.730;2022-12-07T00:41:31;3.81;96.65
67093;SHT31;54011;50.772;7.730;2022-12-07T00:44:00;3.81;96.99
67093;SHT31;54011;50.772;7.730;2022-12-07T00:46:26;3.71;97.22
67093;SHT31;54011;50.772;7.730;2022-12-07T00:48:52;3.81;96.90
67093;SHT31;54011;50.772;7.730;2022-12-07T00:51:20;3.85;96.75
67093;SHT31;54011;50.772;7.730;2022-12-07T00:53:46;3.79;96.88
67093;SHT31;54011;50.772;7.730;2022-12-07T00:56:14;3.78;96.97
67093;SHT31;54011;50.772;7.730;2022-12-07T00:58:39;3.89;96.91
67093;SHT31;54011;50.772;7.730;2022-12-07T01:01:08;3.85;96.84
67093;SHT31;54011;50.772;7.730;2022-12-07T01:03:34;3.81;97.33
67093;SHT31;54011;50.772;7.730;2022-12-07T01:05:59;3.83;97.35
67093;SHT31;54011;50.772;7.730;2022-12-07T01:08:28;3.86;97.23
67093;SHT31;54011;50.772;7.730;2022-12-07T01:11:09;3.81;97.60
67093;SHT31;54011;50.772;7.730;2022-12-07T01:13:36;3.86;97.27
67093;SHT31;54011;50.772;7.730;2022-12-07T01:16:04;3.90;97.40
67093;SHT31;54011;50.772;7.730;2022-12-07T01:18:31;3.95;97.16
67093;SHT31;54011;50.772;7.730;2022-12-07T01:21:11;3.90;97.52
67093;SHT31;54011;50.772;7.730;2022-12-07T01:23:37;3.78;97.80
67093;SHT31;54011;50.772;7.730;2022-12-07T01:26:11;3.93;97.36
67093;SHT31;54011;50.772;7.730;2022-12-07T01:28:37;4.00;97.13
67093;SHT31;54011;50.772;7.730;2022-12-07T01:31:04;3.93;97.67
67093;SHT31;54011;50.772;7.730;2022-12-07T01:33:34;4.00;97.37
67093;SHT31;54011;50.772;7.730;2022-12-07T01:36:05;3.99;97.22
67093;SHT31;54011;50.772;7.730;2022-12-07T01:38:31;4.02;97.23
67093;SHT31;54011;50.772;7.730;2022-12-07T01:40:57;3.93;97.50
67093;SHT31;54011;50.772;7.730;2022-12-07T01:43:24;3.96;97.69
67093;SHT31;54011;50.772;7.730;2022-12-07T01:45:51;4.00;97.59
67093;SHT31;54011;50.772;7.730;2022-12-07T01:48:19;4.03;97.53
67093;SHT31;54011;50.772;7.730;2022-12-07T01:50:47;4.00;97.77
67093;SHT31;54011;50.772;7.730;2022-12-07T01:53:14;3.99;97.82
67093;SHT31;54011;50.772;7.730;2022-12-07T01:55:42;3.97;97.98
67093;SHT31;54011;50.772;7.730;2022-12-07T01:58:10;3.97;97.93
67093;SHT31;54011;50.772;7.730;2022-12-07T02:00:37;3.99;98.16
67093;SHT31;54011;50.772;7.730;2022-12-07T02:03:19;4.04;98.11
67093;SHT31;54011;50.772;7.730;2022-12-07T02:05:48;4.00;98.41
67093;SHT31;54011;50.772;7.730;2022-12-07T02:08:14;4.06;97.97
67093;SHT31;54011;50.772;7.730;2022-12-07T02:10:40;4.00;97.95
67093;SHT31;54011;50.772;7.730;2022-12-07T02:13:22;4.03;98.40
67093;SHT31;54011;50.772;7.730;2022-12-07T02:19:05;3.99;98.28
67093;SHT31;54011;50.772;7.730;2022-12-07T02:27:34;4.02;98.36
67093;SHT31;54011;50.772;7.730;2022-12-07T02:35:09;4.11;98.20
67093;SHT31;54011;50.772;7.730;2022-12-07T02:37:42;4.09;98.10
67093;SHT31;54011;50.772;7.730;2022-12-07T02:40:27;4.16;97.86
67093;SHT31;54011;50.772;7.730;2022-12-07T02:43:06;4.18;98.03
67093;SHT31;54011;50.772;7.730;2022-12-07T02:45:34;4.09;97.85
67093;SHT31;54011;50.772;7.730;2022-12-07T02:48:05;4.13;97.92
67093;SHT31;54011;50.772;7.730;2022-12-07T02:50:50;4.18;97.80
67093;SHT31;54011;50.772;7.730;2022-12-07T02:53:37;4.17;97.77
67093;SHT31;54011;50.772;7.730;2022-12-07T02:56:13;4.18;97.71
67093;SHT31;54011;50.772;7.730;2022-12-07T03:01:48;4.06;98.19
67093;SHT31;54011;50.772;7.730;2022-12-07T03:05:00;4.18;98.05
67093;SHT31;54011;50.772;7.730;2022-12-07T03:16:16;4.30;97.54
67093;SHT31;54011;50.772;7.730;2022-12-07T03:21:17;4.21;97.85
67093;SHT31;54011;50.772;7.730;2022-12-07T03:23:48;4.23;97.91
67093;SHT31;54011;50.772;7.730;2022-12-07T03:26:17;4.26;97.92
67093;SHT31;54011;50.772;7.730;2022-12-07T03:28:52;4.29;97.83
67093;SHT31;54011;50.772;7.730;2022-12-07T03:31:30;4.27;97.64
67093;SHT31;54011;50.772;7.730;2022-12-07T03:34:22;4.26;97.82
67093;SHT31;54011;50.772;7.730;2022-12-07T03:37:05;4.33;97.68
67093;SHT31;54011;50.772;7.730;2022-12-07T03:39:46;4.27;97.80
67093;SHT31;54011;50.772;7.730;2022-12-07T03:42:15;4.27;97.73
67093;SHT31;54011;50.772;7.730;2022-12-07T03:44:42;4.20;97.97
67093;SHT31;54011;50.772;7.730;2022-12-07T03:47:17;4.23;97.91
67093;SHT31;54011;50.772;7.730;2022-12-07T03:49:51;4.29;97.77
67093;SHT31;54011;50.772;7.730;2022-12-07T03:52:26;4.26;97.84
67093;SHT31;54011;50.772;7.730;2022-12-07T03:55:05;4.26;97.74
67093;SHT31;54011;50.772;7.730;2022-12-07T03:57:33;4.32;97.67
67093;SHT31;54011;50.772;7.730;2022-12-07T04:00:03;4.37;97.43
67093;SHT31;54011;50.772;7.730;2022-12-07T04:02:37;4.24;97.70
67093;SHT31;54011;50.772;7.730;2022-12-07T04:05:06;4.33;97.68
67093;SHT31;54011;50.772;7.730;2022-12-07T04:07:32;4.30;97.72
67093;SHT31;54011;50.772;7.730;2022-12-07T04:10:02;4.34;97.58
67093;SHT31;54011;50.772;7.730;2022-12-07T04:12:27;4.26;97.81
67093;SHT31;54011;50.772;7.730;2022-12-07T04:14:52;4.29;97.87
67093;SHT31;54011;50.772;7.730;2022-12-07T04:17:18;4.37;97.76
67093;SHT31;54011;50.772;7.730;2022-12-07T04:19:49;4.29;97.84
67093;SHT31;54011;50.772;7.730;2022-12-07T04:22:15;4.24;98.05
67093;SHT31;54011;50.772;7.730;2022-12-07T04:24:40;4.26;97.77
67093;SHT31;54011;50.772;7.730;2022-12-07T04:27:09;4.29;97.61
67093;SHT31;54011;50.772;7.730;2022-12-07T04:29:34;4.29;97.63
67093;SHT31;54011;50.772;7.730;2022-12-07T04:32:00;4.26;97.57
67093;SHT31;54011;50.772;7.730;2022-12-07T04:34:26;4.26;97.92
67093;SHT31;54011;50.772;7.730;2022-12-07T04:36:51;4.27;97.92
67093;SHT31;54011;50.772;7.730;2022-12-07T04:39:26;4.33;97.75
67093;SHT31;54011;50.772;7.730;2022-12-07T04:41:53;4.21;97.99
67093;SHT31;54011;50.772;7.730;2022-12-07T04:44:19;4.30;97.74
67093;SHT31;54011;50.772;7.730;2022-12-07T04:46:45;4.24;97.96
67093;SHT31;54011;50.772;7.730;2022-12-07T04:49:11;4.29;98.13
67093;SHT31;54011;50.772;7.730;2022-12-07T04:51:37;4.33;97.69
67093;SHT31;54011;50.772;7.730;2022-12-07T04:54:03;4.29;97.80
67093;SHT31;54011;50.772;7.730;2022-12-07T04:56:29;4.36;97.76
67093;SHT31;54011;50.772;7.730;2022-12-07T04:58:55;4.20;98.19
67093;SHT31;54011;50.772;7.730;2022-12-07T05:01:21;4.29;97.92
67093;SHT31;54011;50.772;7.730;2022-12-07T05:03:47;4.26;97.85
67093;SHT31;54011;50.772;7.730;2022-12-07T05:06:13;4.30;98.06
67093;SHT31;54011;50.772;7.730;2022-12-07T05:08:39;4.32;97.87
67093;SHT31;54011;50.772;7.730;2022-12-07T05:11:06;4.32;97.85
67093;SHT31;54011;50.772;7.730;2022-12-07T05:13:32;4.23;97.85
67093;SHT31;54011;50.772;7.730;2022-12-07T05:15:58;4.30;98.05
67093;SHT31;54011;50.772;7.730;2022-12-07T05:18:25;4.16;97.72
67093;SHT31;54011;50.772;7.730;2022-12-07T05:20:51;4.18;98.00
67093;SHT31;54011;50.772;7.730;2022-12-07T05:23:17;4.27;97.84
67093;SHT31;54011;50.772;7.730;2022-12-07T05:25:46;4.32;97.64
67093;SHT31;54011;50.772;7.730;2022-12-07T05:28:11;4.37;97.41
67093;SHT31;54011;50.772;7.730;2022-12-07T05:30:40;4.30;97.75
67093;SHT31;54011;50.772;7.730;2022-12-07T05:33:05;4.34;97.41
67093;SHT31;54011;50.772;7.730;2022-12-07T05:35:31;4.34;97.44
67093;SHT31;54011;50.772;7.730;2022-12-07T05:37:56;4.24;97.44
67093;SHT31;54011;50.772;7.730;2022-12-07T05:40:23;4.34;97.39
67093;SHT31;54011;50.772;7.730;2022-12-07T05:42:52;4.26;97.16
67093;SHT31;54011;50.772;7.730;2022-12-07T05:45:17;4.34;97.03
67093;SHT31;54011;50.772;7.730;2022-12-07T05:47:43;4.33;97.25
67093;SHT31;54011;50.772;7.730;2022-12-07T05:50:09;4.32;97.02
67093;SHT31;54011;50.772;7.730;2022-12-07T05:52:34;4.34;96.84
67093;SHT31;54011;50.772;7.730;2022-12-07T05:55:00;4.29;96.87
67093;SHT31;54011;50.772;7.730;2022-12-07T05:57:25;4.24;96.70
67093;SHT31;54011;50.772;7.730;2022-12-07T05:59:52;4.24;96.63
67093;SHT31;54011;50.772;7.730;2022-12-07T06:02:17;4.23;96.75
67093;SHT31;54011;50.772;7.730;2022-12-07T06:04:45;4.20;97.04
67093;SHT31;54011;50.772;7.730;2022-12-07T06:07:12;4.26;96.33
67093;SHT31;54011;50.772;7.730;2022-12-07T06:09:38;4.23;96.64
67093;SHT31;54011;50.772;7.730;2022-12-07T06:12:05;4.21;96.62
67093;SHT31;54011;50.772;7.730;2022-12-07T06:14:52;4.29;96.42
67093;SHT31;54011;50.772;7.730;2022-12-07T06:17:18;4.24;96.46
67093;SHT31;54011;50.772;7.730;2022-12-07T06:19:43;4.23;95.94
67093;SHT31;54011;50.772;7.730;2022-12-07T06:22:10;4.18;96.45
67093;SHT31;54011;50.772;7.730;2022-12-07T06:24:37;4.23;96.41
67093;SHT31;54011;50.772;7.730;2022-12-07T06:27:02;4.04;96.94
67093;SHT31;54011;50.772;7.730;2022-12-07T06:29:28;3.99;96.95
67093;SHT31;54011;50.772;7.730;2022-12-07T06:31:54;4.17;96.67
67093;SHT31;54011;50.772;7.730;2022-12-07T06:34:24;4.13;96.56
67093;SHT31;54011;50.772;7.730;2022-12-07T06:36:50;4.17;96.48
67093;SHT31;54011;50.772;7.730;2022-12-07T06:39:23;4.09;96.71
67093;SHT31;54011;50.772;7.730;2022-12-07T06:41:51;4.17;96.57
67093;SHT31;54011;50.772;7.730;2022-12-07T06:44:18;4.14;96.66
67093;SHT31;54011;50.772;7.730;2022-12-07T06:46:44;4.04;96.93
67093;SHT31;54011;50.772;7.730;2022-12-07T06:49:09;4.04;97.01
67093;SHT31;54011;50.772;7.730;2022-12-07T06:51:35;4.04;96.95
67093;SHT31;54011;50.772;7.730;2022-12-07T06:54:03;4.09;96.65
67093;SHT31;54011;50.772;7.730;2022-12-07T06:56:29;4.09;96.54
67093;SHT31;54011;50.772;7.730;2022-12-07T06:58:54;4.06;96.17
67093;SHT31;54011;50.772;7.730;2022-12-07T07:01:19;3.99;96.10
67093;SHT31;54011;50.772;7.730;2022-12-07T07:03:45;3.95;96.05
67093;SHT31;54011;50.772;7.730;2022-12-07T07:06:12;3.90;96.70
67093;SHT31;54011;50.772;7.730;2022-12-07T07:08:41;3.81;96.44
67093;SHT31;54011;50.772;7.730;2022-12-07T07:11:08;3.73;96.13
67093;SHT31;54011;50.772;7.730;2022-12-07T07:13:33;3.85;96.27
67093;SHT31;54011;50.772;7.730;2022-12-07T07:15:59;3.81;96.40
67093;SHT31;54011;50.772;7.730;2022-12-07T07:18:25;3.85;96.26
67093;SHT31;54011;50.772;7.730;2022-12-07T07:20:51;3.86;96.42
67093;SHT31;54011;50.772;7.730;2022-12-07T07:23:17;3.90;96.31
67093;SHT31;54011;50.772;7.730;2022-12-07T07:25:44;3.96;96.43
67093;SHT31;54011;50.772;7.730;2022-12-07T07:28:10;3.83;96.59
67093;SHT31;54011;50.772;7.730;2022-12-07T07:30:37;3.87;96.58
67093;SHT31;54011;50.772;7.730;2022-12-07T07:33:04;3.85;95.29
67093;SHT31;54011;50.772;7.730;2022-12-07T07:35:31;3.89;95.28
67093;SHT31;54011;50.772;7.730;2022-12-07T07:37:57;3.92;94.84
67093;SHT31;54011;50.772;7.730;2022-12-07T07:40:22;3.90;94.86
67093;SHT31;54011;50.772;7.730;2022-12-07T07:42:49;3.86;95.21
67093;SHT31;54011;50.772;7.730;2022-12-07T07:45:16;3.82;95.40
67093;SHT31;54011;50.772;7.730;2022-12-07T07:47:44;3.85;95.56
67093;SHT31;54011;50.772;7.730;2022-12-07T07:50:10;3.92;95.43
67093;SHT31;54011;50.772;7.730;2022-12-07T07:52:35;3.87;95.60
67093;SHT31;54011;50.772;7.730;2022-12-07T07:55:01;3.79;95.76
67093;SHT31;54011;50.772;7.730;2022-12-07T07:57:27;3.81;96.00
67093;SHT31;54011;50.772;7.730;2022-12-07T07:59:52;3.82;96.13
67093;SHT31;54011;50.772;7.730;2022-12-07T08:02:19;3.81;96.33
67093;SHT31;54011;50.772;7.730;2022-12-07T08:04:46;3.82;96.84
67093;SHT31;54011;50.772;7.730;2022-12-07T08:07:13;3.86;96.25
67093;SHT31;54011;50.772;7.730;2022-12-07T08:09:38;3.79;96.09
67093;SHT31;54011;50.772;7.730;2022-12-07T08:12:05;3.81;96.08
67093;SHT31;54011;50.772;7.730;2022-12-07T08:14:31;3.81;96.07
67093;SHT31;54011;50.772;7.730;2022-12-07T08:16:57;3.92;96.20
67093;SHT31;54011;50.772;7.730;2022-12-07T08:19:23;4.04;95.92
67093;SHT31;54011;50.772;7.730;2022-12-07T08:21:49;4.10;95.90
67093;SHT31;54011;50.772;7.730;2022-12-07T08:24:15;4.11;95.63
67093;SHT31;54011;50.772;7.730;2022-12-07T08:26:41;4.03;96.52
67093;SHT31;54011;50.772;7.730;2022-12-07T08:29:11;4.07;95.95
67093;SHT31;54011;50.772;7.730;2022-12-07T08:31:37;4.07;95.71
67093;SHT31;54011;50.772;7.730;2022-12-07T08:34:04;4.07;96.10
67093;SHT31;54011;50.772;7.730;2022-12-07T08:36:30;4.18;96.04
67093;SHT31;54011;50.772;7.730;2022-12-07T08:38:55;4.16;96.20
67093;SHT31;54011;50.772;7.730;2022-12-07T08:41:22;4.23;96.14
67093;SHT31;54011;50.772;7.730;2022-12-07T08:43:47;4.16;96.48
67093;SHT31;54011;50.772;7.730;2022-12-07T08:49:00;4.21;95.98
67093;SHT31;54011;50.772;7.730;2022-12-07T08:51:27;4.18;96.03
67093;SHT31;54011;50.772;7.730;2022-12-07T08:53:54;4.24;96.55
67093;SHT31;54011;50.772;7.730;2022-12-07T08:56:21;4.14;96.10
67093;SHT31;54011;50.772;7.730;2022-12-07T08:58:47;4.36;96.40
67093;SHT31;54011;50.772;7.730;2022-12-07T09:01:13;4.32;96.11
67093;SHT31;54011;50.772;7.730;2022-12-07T09:03:38;4.26;95.93
67093;SHT31;54011;50.772;7.730;2022-12-07T09:06:04;4.24;95.78
67093;SHT31;54011;50.772;7.730;2022-12-07T09:08:37;4.27;96.10
67093;SHT31;54011;50.772;7.730;2022-12-07T09:11:05;4.30;95.90
67093;SHT31;54011;50.772;7.730;2022-12-07T09:13:30;4.36;94.97
67093;SHT31;54011;50.772;7.730;2022-12-07T09:15:56;4.45;95.20
67093;SHT31;54011;50.772;7.730;2022-12-07T09:18:23;4.34;94.95
67093;SHT31;54011;50.772;7.730;2022-12-07T09:20:50;4.30;95.60
67093;SHT31;54011;50.772;7.730;2022-12-07T09:23:15;4.43;94.85
67093;SHT31;54011;50.772;7.730;2022-12-07T09:25:41;4.30;94.62
67093;SHT31;54011;50.772;7.730;2022-12-07T09:28:06;4.30;95.07
67093;SHT31;54011;50.772;7.730;2022-12-07T09:30:32;4.20;94.89
67093;SHT31;54011;50.772;7.730;2022-12-07T09:32:59;4.41;95.28
67093;SHT31;54011;50.772;7.730;2022-12-07T09:35:25;4.43;95.52
67093;SHT31;54011;50.772;7.730;2022-12-07T09:37:51;4.45;95.31
67093;SHT31;54011;50.772;7.730;2022-12-07T09:40:20;4.51;94.76
67093;SHT31;54011;50.772;7.730;2022-12-07T09:42:49;4.47;95.14
67093;SHT31;54011;50.772;7.730;2022-12-07T09:45:19;4.30;95.26
67093;SHT31;54011;50.772;7.730;2022-12-07T09:47:46;4.26;95.57
67093;SHT31;54011;50.772;7.730;2022-12-07T09:50:14;4.11;96.07
67093;SHT31;54011;50.772;7.730;2022-12-07T09:52:41;4.09;95.36
67093;SHT31;54011;50.772;7.730;2022-12-07T09:55:12;4.14;95.42
67093;SHT31;54011;50.772;7.730;2022-12-07T09:57:40;4.10;95.49
67093;SHT31;54011;50.772;7.730;2022-12-07T10:00:12;3.95;95.90
67093;SHT31;54011;50.772;7.730;2022-12-07T10:02:46;3.75;94.78
67093;SHT31;54011;50.772;7.730;2022-12-07T10:05:22;3.79;95.28
67093;SHT31;54011;50.772;7.730;2022-12-07T10:07:51;3.78;95.00
67093;SHT31;54011;50.772;7.730;2022-12-07T10:10:26;3.72;95.53
67093;SHT31;54011;50.772;7.730;2022-12-07T10:12:55;3.78;94.62
67093;SHT31;54011;50.772;7.730;2022-12-07T10:15:21;4.00;94.71
67093;SHT31;54011;50.772;7.730;2022-12-07T10:17:54;4.27;93.92
67093;SHT31;54011;50.772;7.730;2022-12-07T10:20:27;4.75;92.19
67093;SHT31;54011;50.772;7.730;2022-12-07T10:23:07;5.02;92.00
67093;SHT31;54011;50.772;7.730;2022-12-07T10:25:39;5.05;91.82
67093;SHT31;54011;50.772;7.730;2022-12-07T10:28:17;5.13;91.63
67093;SHT31;54011;50.772;7.730;2022-12-07T10:31:15;4.48;94.11
67093;SHT31;54011;50.772;7.730;2022-12-07T10:33:58;5.60;91.10
67093;SHT31;54011;50.772;7.730;2022-12-07T10:36:46;6.15;89.02
67093;SHT31;54011;50.772;7.730;2022-12-07T10:39:15;5.74;90.32
67093;SHT31;54011;50.772;7.730;2022-12-07T10:42:03;5.36;92.75
67093;SHT31;54011;50.772;7.730;2022-12-07T10:44:30;5.11;93.17
67093;SHT31;54011;50.772;7.730;2022-12-07T10:53:11;5.32;92.45
67093;SHT31;54011;50.772;7.730;2022-12-07T10:58:47;4.99;93.13
67093;SHT31;54011;50.772;7.730;2022-12-07T11:01:28;5.83;90.35
67093;SHT31;54011;50.772;7.730;2022-12-07T11:07:04;5.88;89.99
67093;SHT31;54011;50.772;7.730;2022-12-07T11:10:10;6.42;88.22
67093;SHT31;54011;50.772;7.730;2022-12-07T11:15:19;5.63;90.60
67093;SHT31;54011;50.772;7.730;2022-12-07T11:18:01;5.33;92.95
67093;SHT31;54011;50.772;7.730;2022-12-07T11:20:58;5.25;93.24
67093;SHT31;54011;50.772;7.730;2022-12-07T11:26:29;5.16;92.51
67093;SHT31;54011;50.772;7.730;2022-12-07T11:29:19;5.39;91.25
67093;SHT31;54011;50.772;7.730;2022-12-07T11:37:19;5.26;92.53
67093;SHT31;54011;50.772;7.730;2022-12-07T11:39:54;5.61;89.87
67093;SHT31;54011;50.772;7.730;2022-12-07T11:42:28;5.43;90.75
67093;SHT31;54011;50.772;7.730;2022-12-07T11:45:10;5.57;91.17
67093;SHT31;54011;50.772;7.730;2022-12-07T11:47:59;5.98;89.97
67093;SHT31;54011;50.772;7.730;2022-12-07T11:50:41;6.08;89.46
67093;SHT31;54011;50.772;7.730;2022-12-07T11:55:43;5.43;92.44
67093;SHT31;54011;50.772;7.730;2022-12-07T12:01:08;5.83;90.69
67093;SHT31;54011;50.772;7.730;2022-12-07T12:03:40;5.54;91.13
67093;SHT31;54011;50.772;7.730;2022-12-07T12:06:08;5.23;91.17
67093;SHT31;54011;50.772;7.730;2022-12-07T12:08:40;5.20;91.03
67093;SHT31;54011;50.772;7.730;2022-12-07T12:11:18;6.39;87.90
67093;SHT31;54011;50.772;7.730;2022-12-07T12:17:03;6.02;87.99
67093;SHT31;54011;50.772;7.730;2022-12-07T12:22:43;5.57;89.86
67093;SHT31;54011;50.772;7.730;2022-12-07T12:25:28;7.11;86.78
67093;SHT31;54011;50.772;7.730;2022-12-07T12:27:58;8.07;81.93
67093;SHT31;54011;50.772;7.730;2022-12-07T12:30:37;7.49;82.55
67093;SHT31;54011;50.772;7.730;2022-12-07T12:33:15;6.90;85.51
67093;SHT31;54011;50.772;7.730;2022-12-07T12:35:45;6.24;88.24
67093;SHT31;54011;50.772;7.730;2022-12-07T12:38:27;6.21;88.18
67093;SHT31;54011;50.772;7.730;2022-12-07T12:40:55;6.02;88.08
67093;SHT31;54011;50.772;7.730;2022-12-07T12:43:41;5.91;88.78
67093;SHT31;54011;50.772;7.730;2022-12-07T12:46:38;5.50;90.91
67093;SHT31;54011;50.772;7.730;2022-12-07T12:51:43;4.10;91.91
67093;SHT31;54011;50.772;7.730;2022-12-07T12:54:33;4.29;92.75
67093;SHT31;54011;50.772;7.730;2022-12-07T13:02:27;3.66;94.51
67093;SHT31;54011;50.772;7.730;2022-12-07T13:04:58;3.66;94.16
67093;SHT31;54011;50.772;7.730;2022-12-07T13:18:40;3.54;94.07
67093;SHT31;54011;50.772;7.730;2022-12-07T13:28:50;3.55;94.32
67093;SHT31;54011;50.772;7.730;2022-12-07T13:31:32;3.51;93.77
67093;SHT31;54011;50.772;7.730;2022-12-07T13:33:58;3.48;93.86
67093;SHT31;54011;50.772;7.730;2022-12-07T13:36:45;3.46;93.92
67093;SHT31;54011;50.772;7.730;2022-12-07T13:39:18;3.96;93.21
67093;SHT31;54011;50.772;7.730;2022-12-07T13:41:53;4.41;91.13
67093;SHT31;54011;50.772;7.730;2022-12-07T13:44:20;4.89;91.23
67093;SHT31;54011;50.772;7.730;2022-12-07T13:47:04;4.33;91.34
67093;SHT31;54011;50.772;7.730;2022-12-07T13:49:37;4.07;92.59
67093;SHT31;54011;50.772;7.730;2022-12-07T13:57:35;3.71;93.89
67093;SHT31;54011;50.772;7.730;2022-12-07T14:00:03;3.81;94.03
67093;SHT31;54011;50.772;7.730;2022-12-07T14:02:59;3.81;94.02
67093;SHT31;54011;50.772;7.730;2022-12-07T14:05:27;3.92;94.14
67093;SHT31;54011;50.772;7.730;2022-12-07T14:08:02;3.85;94.17
67093;SHT31;54011;50.772;7.730;2022-12-07T14:10:37;3.92;94.26
67093;SHT31;54011;50.772;7.730;2022-12-07T14:13:34;3.93;94.11
67093;SHT31;54011;50.772;7.730;2022-12-07T14:16:03;3.96;94.52
67093;SHT31;54011;50.772;7.730;2022-12-07T14:18:39;3.96;94.58
67093;SHT31;54011;50.772;7.730;2022-12-07T14:21:13;3.96;94.33
67093;SHT31;54011;50.772;7.730;2022-12-07T14:23:42;3.99;93.98
67093;SHT31;54011;50.772;7.730;2022-12-07T14:26:12;3.96;94.41
67093;SHT31;54011;50.772;7.730;2022-12-07T14:28:39;4.00;94.40
67093;SHT31;54011;50.772;7.730;2022-12-07T14:31:16;3.97;94.68
67093;SHT31;54011;50.772;7.730;2022-12-07T14:33:45;4.02;94.11
67093;SHT31;54011;50.772;7.730;2022-12-07T14:36:11;3.90;94.58
67093;SHT31;54011;50.772;7.730;2022-12-07T14:38:37;3.83;94.61
67093;SHT31;54011;50.772;7.730;2022-12-07T14:41:12;3.85;94.40
67093;SHT31;54011;50.772;7.730;2022-12-07T14:43:59;3.89;94.81
67093;SHT31;54011;50.772;7.730;2022-12-07T14:46:25;3.85;94.51
67093;SHT31;54011;50.772;7.730;2022-12-07T14:48:50;3.90;94.58
67093;SHT31;54011;50.772;7.730;2022-12-07T14:51:16;3.87;94.61
67093;SHT31;54011;50.772;7.730;2022-12-07T14:53:48;3.86;94.89
67093;SHT31;54011;50.772;7.730;2022-12-07T14:56:16;3.90;94.71
67093;SHT31;54011;50.772;7.730;2022-12-07T14:58:42;3.96;94.55
67093;SHT31;54011;50.772;7.730;2022-12-07T15:01:07;3.96;94.49
67093;SHT31;54011;50.772;7.730;2022-12-07T15:03:34;3.99;94.67
67093;SHT31;54011;50.772;7.730;2022-12-07T15:06:00;3.97;94.87
67093;SHT31;54011;50.772;7.730;2022-12-07T15:08:26;4.00;95.19
67093;SHT31;54011;50.772;7.730;2022-12-07T15:10:52;3.89;95.06
67093;SHT31;54011;50.772;7.730;2022-12-07T15:13:17;3.89;95.21
67093;SHT31;54011;50.772;7.730;2022-12-07T15:16:02;3.97;95.46
67093;SHT31;54011;50.772;7.730;2022-12-07T15:18:27;4.03;95.21
67093;SHT31;54011;50.772;7.730;2022-12-07T15:20:54;4.09;95.06
67093;SHT31;54011;50.772;7.730;2022-12-07T15:23:19;4.11;94.66
67093;SHT31;54011;50.772;7.730;2022-12-07T15:25:47;4.09;94.56
67093;SHT31;54011;50.772;7.730;2022-12-07T15:28:14;4.04;94.88
67093;SHT31;54011;50.772;7.730;2022-12-07T15:30:41;4.07;95.17
67093;SHT31;54011;50.772;7.730;2022-12-07T15:33:09;4.10;95.46
67093;SHT31;54011;50.772;7.730;2022-12-07T15:35:40;4.16;95.09
67093;SHT31;54011;50.772;7.730;2022-12-07T15:38:07;4.20;95.05
67093;SHT31;54011;50.772;7.730;2022-12-07T15:40:33;4.17;94.87
67093;SHT31;54011;50.772;7.730;2022-12-07T15:43:02;4.10;95.54
67093;SHT31;54011;50.772;7.730;2022-12-07T15:45:28;4.18;95.16
67093;SHT31;54011;50.772;7.730;2022-12-07T15:47:53;4.16;95.19
67093;SHT31;54011;50.772;7.730;2022-12-07T15:50:20;4.07;95.76
67093;SHT31;54011;50.772;7.730;2022-12-07T15:52:48;4.10;96.02
67093;SHT31;54011;50.772;7.730;2022-12-07T15:55:14;4.13;95.44
67093;SHT31;54011;50.772;7.730;2022-12-07T15:57:41;4.10;95.51
67093;SHT31;54011;50.772;7.730;2022-12-07T16:00:08;4.13;95.59
67093;SHT31;54011;50.772;7.730;2022-12-07T16:02:36;4.17;95.46
67093;SHT31;54011;50.772;7.730;2022-12-07T16:05:01;4.11;95.75
67093;SHT31;54011;50.772;7.730;2022-12-07T16:07:30;4.13;95.71
67093;SHT31;54011;50.772;7.730;2022-12-07T16:09:55;4.16;95.68
67093;SHT31;54011;50.772;7.730;2022-12-07T16:12:21;4.04;95.83
67093;SHT31;54011;50.772;7.730;2022-12-07T16:14:50;4.17;95.42
67093;SHT31;54011;50.772;7.730;2022-12-07T16:17:16;4.10;95.57
67093;SHT31;54011;50.772;7.730;2022-12-07T16:19:42;4.10;95.59
67093;SHT31;54011;50.772;7.730;2022-12-07T16:22:08;4.04;95.82
67093;SHT31;54011;50.772;7.730;2022-12-07T16:24:33;4.07;95.88
67093;SHT31;54011;50.772;7.730;2022-12-07T16:26:59;4.10;95.96
67093;SHT31;54011;50.772;7.730;2022-12-07T16:29:24;4.13;95.95
67093;SHT31;54011;50.772;7.730;2022-12-07T16:31:51;4.09;95.95
67093;SHT31;54011;50.772;7.730;2022-12-07T16:34:17;4.14;95.88
67093;SHT31;54011;50.772;7.730;2022-12-07T16:36:44;4.07;95.74
67093;SHT31;54011;50.772;7.730;2022-12-07T16:39:12;4.17;95.55
67093;SHT31;54011;50.772;7.730;2022-12-07T16:41:38;4.23;95.36
67093;SHT31;54011;50.772;7.730;2022-12-07T16:44:05;4.13;95.70
67093;SHT31;54011;50.772;7.730;2022-12-07T16:46:33;4.11;95.61
67093;SHT31;54011;50.772;7.730;2022-12-07T16:49:01;4.13;95.68
67093;SHT31;54011;50.772;7.730;2022-12-07T16:51:27;4.17;95.79
67093;SHT31;54011;50.772;7.730;2022-12-07T16:53:54;4.20;95.53
67093;SHT31;54011;50.772;7.730;2022-12-07T16:56:20;4.20;95.54
67093;SHT31;54011;50.772;7.730;2022-12-07T16:58:46;4.16;95.63
67093;SHT31;54011;50.772;7.730;2022-12-07T17:01:18;4.07;95.95
67093;SHT31;54011;50.772;7.730;2022-12-07T17:03:49;4.02;95.81
67093;SHT31;54011;50.772;7.730;2022-12-07T17:06:18;3.87;95.49
67093;SHT31;54011;50.772;7.730;2022-12-07T17:09:04;3.93;95.80
67093;SHT31;54011;50.772;7.730;2022-12-07T17:11:44;3.90;95.49
67093;SHT31;54011;50.772;7.730;2022-12-07T17:14:10;3.87;95.75
67093;SHT31;54011;50.772;7.730;2022-12-07T17:16:55;3.87;96.09
67093;SHT31;54011;50.772;7.730;2022-12-07T17:19:20;3.92;96.17
67093;SHT31;54011;50.772;7.730;2022-12-07T17:21:47;3.99;95.28
67093;SHT31;54011;50.772;7.730;2022-12-07T17:24:15;4.00;95.76
67093;SHT31;54011;50.772;7.730;2022-12-07T17:26:42;3.99;95.84
67093;SHT31;54011;50.772;7.730;2022-12-07T17:29:09;4.00;95.79
67093;SHT31;54011;50.772;7.730;2022-12-07T17:31:35;3.97;95.68
67093;SHT31;54011;50.772;7.730;2022-12-07T17:34:02;3.90;95.58
67093;SHT31;54011;50.772;7.730;2022-12-07T17:36:31;3.81;96.29
67093;SHT31;54011;50.772;7.730;2022-12-07T17:38:57;3.85;95.99
67093;SHT31;54011;50.772;7.730;2022-12-07T17:41:28;3.79;96.32